createdAt,value
2023-03-10T00:00:54.061Z,-5.26
2023-03-10T00:03:21.736Z,-5.31
2023-03-10T00:05:50.921Z,-5.30
2023-03-10T00:08:18.639Z,-5.35
2023-03-10T00:10:47.577Z,-5.32
2023-03-10T00:13:15.238Z,-5.34
2023-03-10T00:15:43.103Z,-5.45
2023-03-10T00:18:12.833Z,-5.51
2023-03-10T00:20:40.559Z,-5.55
2023-03-10T00:23:09.696Z,-5.53
2023-03-10T00:25:37.369Z,-5.55
2023-03-10T00:28:05.110Z,-5.60
2023-03-10T00:30:35.349Z,-5.62
2023-03-10T00:33:03.029Z,-5.68
2023-03-10T00:35:30.721Z,-5.85
2023-03-10T00:37:58.482Z,-6.09
2023-03-10T00:40:27.576Z,-6.43
2023-03-10T00:42:55.272Z,-6.37
2023-03-10T00:45:22.973Z,-6.43
2023-03-10T00:47:50.642Z,-6.53
2023-03-10T00:50:18.372Z,-6.86
2023-03-10T00:52:46.021Z,-7.36
2023-03-10T00:55:14.029Z,-7.70
2023-03-10T00:57:43.090Z,-7.96
2023-03-10T01:00:11.834Z,-8.18
2023-03-10T01:02:39.514Z,-8.26
2023-03-10T01:05:07.314Z,-8.35
2023-03-10T01:07:34.990Z,-8.37
2023-03-10T01:10:02.606Z,-8.39
2023-03-10T01:12:30.256Z,-8.34
2023-03-10T01:14:59.320Z,-8.27
2023-03-10T01:17:26.991Z,-8.18
2023-03-10T01:19:54.766Z,-8.09
2023-03-10T01:22:22.415Z,-7.98
2023-03-10T01:24:50.076Z,-7.91
2023-03-10T01:27:17.747Z,-7.97
2023-03-10T01:29:45.391Z,-7.91
2023-03-10T01:32:14.498Z,-7.84
2023-03-10T01:34:42.120Z,-7.69
2023-03-10T01:37:09.847Z,-7.71
2023-03-10T01:39:37.677Z,-7.72
2023-03-10T01:42:05.553Z,-7.73
2023-03-10T01:44:33.225Z,-7.70
2023-03-10T01:47:00.995Z,-7.64
2023-03-10T01:49:36.234Z,-7.56
2023-03-10T01:52:05.760Z,-7.51
2023-03-10T01:54:37.551Z,-7.50
2023-03-10T01:57:06.245Z,-7.44
2023-03-10T01:59:35.316Z,-7.41
2023-03-10T02:02:04.273Z,-7.34
2023-03-10T02:04:36.000Z,-7.38
2023-03-10T02:07:05.833Z,-7.38
2023-03-10T02:09:35.636Z,-7.37
2023-03-10T02:12:04.867Z,-7.31
2023-03-10T02:14:33.203Z,-7.31
2023-03-10T02:17:00.933Z,-7.24
2023-03-10T02:19:35.713Z,-7.18
2023-03-10T02:22:06.985Z,-7.17
2023-03-10T02:24:41.016Z,-7.15
2023-03-10T02:27:15.430Z,-7.09
2023-03-10T02:29:58.396Z,-7.03
2023-03-10T02:32:27.854Z,-7.02
2023-03-10T02:34:55.625Z,-6.96
2023-03-10T02:37:24.560Z,-6.91
2023-03-10T02:39:52.322Z,-6.91
2023-03-10T02:42:22.182Z,-6.91
2023-03-10T02:44:50.195Z,-7.02
2023-03-10T02:47:17.918Z,-7.15
2023-03-10T02:49:45.773Z,-7.27
2023-03-10T02:52:20.681Z,-7.41
2023-03-10T02:54:48.323Z,-7.46
2023-03-10T02:57:16.024Z,-7.39
2023-03-10T02:59:45.059Z,-7.39
2023-03-10T03:02:12.734Z,-7.51
2023-03-10T03:04:40.456Z,-7.69
2023-03-10T03:07:08.126Z,-7.76
2023-03-10T03:09:35.973Z,-7.74
2023-03-10T03:12:03.877Z,-7.75
2023-03-10T03:14:31.666Z,-7.98
2023-03-10T03:17:00.814Z,-7.99
2023-03-10T03:19:29.922Z,-8.02
2023-03-10T03:21:57.817Z,-8.06
2023-03-10T03:24:25.524Z,-8.09
2023-03-10T03:26:53.196Z,-8.13
2023-03-10T03:29:20.905Z,-8.04
2023-03-10T03:31:48.588Z,-7.92
2023-03-10T03:34:17.672Z,-7.87
2023-03-10T03:36:45.444Z,-7.79
2023-03-10T03:39:17.329Z,-7.77
2023-03-10T03:41:45.141Z,-7.69
2023-03-10T03:44:13.016Z,-7.66
2023-03-10T03:46:40.654Z,-7.72
2023-03-10T03:49:08.282Z,-7.68
2023-03-10T03:51:38.246Z,-7.74
2023-03-10T03:54:05.991Z,-7.76
2023-03-10T03:56:33.609Z,-7.75
2023-03-10T03:59:01.259Z,-7.80
2023-03-10T04:01:29.248Z,-7.90
2023-03-10T04:03:57.009Z,-7.89
2023-03-10T04:06:24.736Z,-7.95
2023-03-10T04:08:53.734Z,-7.94
2023-03-10T04:11:21.355Z,-7.88
2023-03-10T04:13:49.010Z,-7.91
2023-03-10T04:16:16.836Z,-7.95
2023-03-10T04:18:44.926Z,-7.95
2023-03-10T04:21:12.631Z,-7.94
2023-03-10T04:23:42.225Z,-7.90
2023-03-10T04:26:11.942Z,-7.90
2023-03-10T04:28:39.625Z,-7.95
2023-03-10T04:31:12.308Z,-7.94
2023-03-10T04:33:40.008Z,-7.94
2023-03-10T04:36:08.161Z,-7.96
2023-03-10T04:38:35.822Z,-7.91
2023-03-10T04:41:05.128Z,-7.93
2023-03-10T04:43:34.217Z,-7.98
2023-03-10T04:46:02.115Z,-8.00
2023-03-10T04:48:29.895Z,-7.99
2023-03-10T04:50:57.916Z,-7.96
2023-03-10T04:53:25.761Z,-8.00
2023-03-10T04:55:53.388Z,-7.97
2023-03-10T04:58:21.458Z,-7.95
2023-03-10T05:01:02.209Z,-7.91
2023-03-10T05:03:30.666Z,-7.83
2023-03-10T05:05:58.333Z,-7.83
2023-03-10T05:08:26.004Z,-7.82
2023-03-10T05:10:53.721Z,-7.82
2023-03-10T05:13:21.402Z,-7.84
2023-03-10T05:15:50.490Z,-7.82
2023-03-10T05:18:18.540Z,-7.81
2023-03-10T05:20:46.207Z,-7.81
2023-03-10T05:23:13.877Z,-7.82
2023-03-10T05:25:41.617Z,-7.96
2023-03-10T05:28:09.292Z,-7.97
2023-03-10T05:30:36.951Z,-7.92
2023-03-10T05:33:06.004Z,-7.89
2023-03-10T05:35:34.015Z,-7.97
2023-03-10T05:38:04.263Z,-7.97
2023-03-10T05:40:34.322Z,-7.93
2023-03-10T05:43:02.575Z,-7.94
2023-03-10T05:45:30.192Z,-7.91
2023-03-10T05:47:57.906Z,-7.84
2023-03-10T05:50:27.224Z,-7.86
2023-03-10T05:52:54.900Z,-7.81
2023-03-10T05:55:24.025Z,-7.84
2023-03-10T05:57:51.733Z,-7.91
2023-03-10T06:00:19.829Z,-7.86
2023-03-10T06:02:47.477Z,-8.07
2023-03-10T06:05:15.193Z,-8.17
2023-03-10T06:07:44.311Z,-8.10
2023-03-10T06:10:12.193Z,-8.00
2023-03-10T06:12:39.886Z,-7.90
2023-03-10T06:15:08.241Z,-7.81
2023-03-10T06:17:35.991Z,-7.67
2023-03-10T06:20:03.751Z,-7.57
2023-03-10T06:22:31.574Z,-7.48
2023-03-10T06:25:00.682Z,-7.44
2023-03-10T06:27:28.456Z,-7.48
2023-03-10T06:29:56.081Z,-7.42
2023-03-10T06:32:24.178Z,-7.35
2023-03-10T06:34:51.894Z,-7.26
2023-03-10T06:37:19.980Z,-7.22
2023-03-10T06:39:47.784Z,-7.23
2023-03-10T06:42:16.935Z,-7.15
2023-03-10T06:44:44.647Z,-7.24
2023-03-10T06:47:12.320Z,-7.25
2023-03-10T06:49:39.980Z,-7.25
2023-03-10T06:52:07.912Z,-7.26
2023-03-10T06:54:35.579Z,-7.18
2023-03-10T06:57:03.294Z,-7.07
2023-03-10T06:59:33.502Z,-6.99
2023-03-10T07:02:01.154Z,-6.94
2023-03-10T07:04:28.931Z,-6.92
2023-03-10T07:06:56.544Z,-6.91
2023-03-10T07:09:24.215Z,-6.89
2023-03-10T07:11:51.953Z,-6.79
2023-03-10T07:14:19.616Z,-6.69
2023-03-10T07:16:51.249Z,-6.84
2023-03-10T07:19:21.504Z,-6.82
2023-03-10T07:21:49.224Z,-6.73
2023-03-10T07:24:17.468Z,-6.68
2023-03-10T07:26:45.405Z,-6.73
2023-03-10T07:29:13.102Z,-6.71
2023-03-10T07:31:40.750Z,-6.71
2023-03-10T07:34:09.812Z,-6.75
2023-03-10T07:36:37.616Z,-6.83
2023-03-10T07:39:05.359Z,-6.86
2023-03-10T07:41:33.040Z,-6.81
2023-03-10T07:44:00.673Z,-6.79
2023-03-10T07:46:28.382Z,-6.74
2023-03-10T07:48:56.399Z,-6.70
2023-03-10T07:51:25.387Z,-6.57
2023-03-10T07:53:53.498Z,-6.47
2023-03-10T07:56:21.306Z,-6.42
2023-03-10T07:58:49.021Z,-6.31
2023-03-10T08:01:17.709Z,-6.23
2023-03-10T08:03:45.552Z,-6.24
2023-03-10T08:06:17.428Z,-6.13
2023-03-10T08:08:46.476Z,-6.02
2023-03-10T08:11:14.095Z,-5.94
2023-03-10T08:13:42.024Z,-5.87
2023-03-10T08:16:09.892Z,-5.77
2023-03-10T08:18:37.978Z,-5.73
2023-03-10T08:21:06.664Z,-5.78
2023-03-10T08:23:35.487Z,-5.65
2023-03-10T08:26:06.533Z,-5.64
2023-03-10T08:28:35.431Z,-5.70
2023-03-10T08:31:08.317Z,-5.75
2023-03-10T08:33:36.265Z,-5.76
2023-03-10T08:36:05.376Z,-5.72
2023-03-10T08:38:33.479Z,-5.57
2023-03-10T08:41:10.825Z,-5.51
2023-03-10T08:43:38.865Z,-5.40
2023-03-10T08:46:08.707Z,-5.28
2023-03-10T08:48:36.759Z,-5.19
2023-03-10T08:51:05.135Z,-5.04
2023-03-10T08:53:33.916Z,-4.96
2023-03-10T08:56:01.557Z,-4.93
2023-03-10T08:58:30.624Z,-4.94
2023-03-10T09:00:58.320Z,-5.02
2023-03-10T09:03:26.622Z,-5.04
2023-03-10T09:05:55.477Z,-5.07
2023-03-10T09:08:24.325Z,-4.95
2023-03-10T09:10:53.366Z,-4.88
2023-03-10T09:13:20.989Z,-4.90
2023-03-10T09:15:50.642Z,-4.92
2023-03-10T09:18:18.249Z,-4.74
2023-03-10T09:20:46.243Z,-4.61
2023-03-10T09:23:15.593Z,-4.46
2023-03-10T09:25:43.262Z,-4.46
2023-03-10T09:28:14.988Z,-4.39
2023-03-10T09:30:43.557Z,-4.36
2023-03-10T09:33:15.266Z,-4.33
2023-03-10T09:35:52.453Z,-4.21
2023-03-10T09:38:25.734Z,-4.24
2023-03-10T09:40:57.760Z,-4.27
2023-03-10T09:43:26.213Z,-4.28
2023-03-10T09:45:56.501Z,-4.15
2023-03-10T09:48:32.381Z,-4.08
2023-03-10T09:51:05.812Z,-3.95
2023-03-10T09:53:49.789Z,-3.82
2023-03-10T09:56:20.047Z,-3.72
2023-03-10T09:58:48.805Z,-3.63
2023-03-10T10:01:17.564Z,-3.52
2023-03-10T10:03:53.341Z,-3.34
2023-03-10T10:06:26.705Z,-3.10
2023-03-10T10:09:04.120Z,-3.03
2023-03-10T10:11:33.362Z,-3.05
2023-03-10T10:14:15.861Z,-3.03
2023-03-10T10:16:49.360Z,-3.17
2023-03-10T10:19:21.280Z,-3.20
2023-03-10T10:21:51.502Z,-3.18
2023-03-10T10:24:19.417Z,-3.13
2023-03-10T10:26:47.149Z,-3.15
2023-03-10T10:29:16.532Z,-3.17
2023-03-10T10:31:44.367Z,-3.14
2023-03-10T10:34:21.245Z,-3.05
2023-03-10T10:36:51.027Z,-2.84
2023-03-10T10:39:27.885Z,-2.79
2023-03-10T10:41:55.852Z,-2.64
2023-03-10T10:44:23.515Z,-2.56
2023-03-10T10:46:52.440Z,-2.53
2023-03-10T10:49:23.898Z,-2.46
2023-03-10T10:51:59.052Z,-2.41
2023-03-10T10:54:29.297Z,-2.33
2023-03-10T10:56:58.176Z,-2.28
2023-03-10T10:59:29.136Z,-2.17
2023-03-10T11:01:57.781Z,-2.17
2023-03-10T11:04:27.849Z,-2.17
2023-03-10T11:07:10.088Z,-2.25
2023-03-10T11:09:38.473Z,-2.25
2023-03-10T11:12:08.581Z,-2.14
2023-03-10T11:14:43.984Z,-2.05
2023-03-10T11:17:15.589Z,-2.01
2023-03-10T11:19:53.456Z,-1.96
2023-03-10T11:22:26.151Z,-1.99
2023-03-10T11:24:58.372Z,-1.97
2023-03-10T11:27:31.076Z,-1.90
2023-03-10T11:30:04.617Z,-1.86
2023-03-10T11:32:37.868Z,-1.93
2023-03-10T11:35:16.084Z,-1.96
2023-03-10T11:37:45.253Z,-1.87
2023-03-10T11:40:19.779Z,-1.78
2023-03-10T11:42:51.800Z,-1.78
2023-03-10T11:45:25.733Z,-1.77
2023-03-10T11:47:58.368Z,-1.73
2023-03-10T11:50:32.548Z,-1.71
2023-03-10T11:53:02.661Z,-1.68
2023-03-10T11:55:31.686Z,-1.72
2023-03-10T11:58:01.093Z,-1.83
2023-03-10T12:00:30.678Z,-1.77
2023-03-10T12:03:08.516Z,-1.67
2023-03-10T12:05:43.835Z,-1.62
2023-03-10T12:08:12.529Z,-1.72
2023-03-10T12:10:42.310Z,-1.78
2023-03-10T12:13:17.812Z,-1.76
2023-03-10T12:15:46.323Z,-1.72
2023-03-10T12:18:13.948Z,-1.70
2023-03-10T12:20:43.049Z,-1.64
2023-03-10T12:23:29.251Z,-1.57
2023-03-10T12:25:56.857Z,-1.54
2023-03-10T12:28:25.780Z,-1.51
2023-03-10T12:30:56.501Z,-1.52
2023-03-10T12:33:44.637Z,-1.56
2023-03-10T12:36:15.173Z,-1.56
2023-03-10T12:38:44.665Z,-1.55
2023-03-10T12:41:12.514Z,-1.64
2023-03-10T12:43:54.177Z,-1.74
2023-03-10T12:46:24.539Z,-1.92
2023-03-10T12:48:55.179Z,-2.02
2023-03-10T12:51:26.017Z,-2.07
2023-03-10T12:53:58.045Z,-2.13
2023-03-10T12:56:34.157Z,-2.17
2023-03-10T12:59:06.701Z,-2.21
2023-03-10T13:01:40.593Z,-2.31
2023-03-10T13:04:14.463Z,-2.29
2023-03-10T13:06:45.233Z,-2.30
2023-03-10T13:09:22.045Z,-2.26
2023-03-10T13:11:51.885Z,-2.26
2023-03-10T13:14:21.108Z,-2.22
2023-03-10T13:16:54.513Z,-2.25
2023-03-10T13:19:23.329Z,-2.26
2023-03-10T13:21:52.781Z,-2.26
2023-03-10T13:24:23.086Z,-2.23
2023-03-10T13:27:02.662Z,-2.16
2023-03-10T13:29:30.387Z,-2.20
2023-03-10T13:31:58.163Z,-2.18
2023-03-10T13:34:28.536Z,-2.18
2023-03-10T13:37:04.001Z,-2.16
2023-03-10T13:39:31.740Z,-2.12
2023-03-10T13:42:00.234Z,-2.05
2023-03-10T13:44:29.372Z,-1.96
2023-03-10T13:46:58.699Z,-1.88
2023-03-10T13:49:28.059Z,-1.80
2023-03-10T13:51:56.701Z,-1.80
2023-03-10T13:54:26.596Z,-1.91
2023-03-10T13:56:56.593Z,-1.93
2023-03-10T13:59:26.597Z,-1.89
2023-03-10T14:01:55.747Z,-1.82
2023-03-10T14:04:38.256Z,-1.86
2023-03-10T14:07:09.288Z,-1.93
2023-03-10T14:09:38.290Z,-2.01
2023-03-10T14:12:06.012Z,-2.04
2023-03-10T14:14:34.701Z,-2.10
2023-03-10T14:17:04.078Z,-2.13
2023-03-10T14:19:48.500Z,-2.11
2023-03-10T14:22:26.342Z,-2.12
2023-03-10T14:24:55.342Z,-2.01
2023-03-10T14:27:23.290Z,-2.01
2023-03-10T14:29:51.967Z,-2.00
2023-03-10T14:32:20.034Z,-1.95
2023-03-10T14:34:47.689Z,-1.94
2023-03-10T14:37:15.456Z,-1.91
2023-03-10T14:39:43.108Z,-1.90
2023-03-10T14:42:18.752Z,-1.88
2023-03-10T14:44:46.485Z,-1.82
2023-03-10T14:47:14.234Z,-1.82
2023-03-10T14:49:42.107Z,-1.82
2023-03-10T14:52:17.040Z,-1.89
2023-03-10T14:54:45.185Z,-1.98
2023-03-10T14:57:16.571Z,-1.98
2023-03-10T14:59:44.281Z,-1.99
2023-03-10T15:02:16.486Z,-2.06
2023-03-10T15:04:44.200Z,-2.03
2023-03-10T15:07:11.975Z,-2.04
2023-03-10T15:09:39.613Z,-2.07
2023-03-10T15:12:07.429Z,-2.06
2023-03-10T15:14:36.617Z,-2.04
2023-03-10T15:17:04.669Z,-2.02
2023-03-10T15:19:32.325Z,-2.01
2023-03-10T15:22:00.191Z,-2.03
2023-03-10T15:24:27.872Z,-2.03
2023-03-10T15:26:55.566Z,-1.98
2023-03-10T15:29:23.558Z,-1.96
2023-03-10T15:31:52.649Z,-1.98
2023-03-10T15:34:20.767Z,-1.92
2023-03-10T15:36:48.482Z,-1.88
2023-03-10T15:39:25.536Z,-1.87
2023-03-10T15:41:59.105Z,-1.98
2023-03-10T15:44:27.004Z,-2.06
2023-03-10T15:46:56.262Z,-2.06
2023-03-10T15:49:24.013Z,-2.01
2023-03-10T15:51:51.658Z,-2.03
2023-03-10T15:54:19.428Z,-2.08
2023-03-10T15:56:47.208Z,-2.11
2023-03-10T15:59:15.085Z,-2.05
2023-03-10T16:01:42.740Z,-2.12
2023-03-10T16:04:11.860Z,-2.14
2023-03-10T16:06:39.560Z,-2.16
2023-03-10T16:09:09.038Z,-2.17
2023-03-10T16:11:36.931Z,-2.16
2023-03-10T16:14:04.717Z,-2.16
2023-03-10T16:16:32.404Z,-2.16
2023-03-10T16:19:00.123Z,-2.18
2023-03-10T16:21:29.228Z,-2.20
2023-03-10T16:23:56.883Z,-2.22
2023-03-10T16:26:25.417Z,-2.21
2023-03-10T16:28:53.900Z,-2.22
2023-03-10T16:31:22.696Z,-2.25
2023-03-10T16:33:51.073Z,-2.24
2023-03-10T16:36:20.584Z,-2.21
2023-03-10T16:38:50.548Z,-2.20
2023-03-10T16:41:20.930Z,-2.19
2023-03-10T16:43:48.672Z,-2.21
2023-03-10T16:46:19.945Z,-2.24
2023-03-10T16:48:48.473Z,-2.24
2023-03-10T16:51:20.944Z,-2.25
2023-03-10T16:53:50.128Z,-2.28
2023-03-10T16:56:17.916Z,-2.28
2023-03-10T16:58:45.625Z,-2.27
2023-03-10T17:01:13.469Z,-2.32
2023-03-10T17:03:41.259Z,-2.33
2023-03-10T17:06:10.507Z,-2.27
2023-03-10T17:08:38.213Z,-2.26
2023-03-10T17:11:07.946Z,-2.29
2023-03-10T17:13:36.722Z,-2.24
2023-03-10T17:16:12.433Z,-2.20
2023-03-10T17:18:40.311Z,-2.21
2023-03-10T17:21:11.753Z,-2.21
2023-03-10T17:23:39.396Z,-2.19
2023-03-10T17:26:09.219Z,-2.21
2023-03-10T17:28:36.959Z,-2.23
2023-03-10T17:31:08.248Z,-2.29
2023-03-10T17:33:35.919Z,-2.29
2023-03-10T17:36:06.700Z,-2.32
2023-03-10T17:38:34.688Z,-2.33
2023-03-10T17:41:04.881Z,-2.32
2023-03-10T17:43:34.802Z,-2.29
2023-03-10T17:46:04.821Z,-2.31
2023-03-10T17:48:33.169Z,-2.29
2023-03-10T17:51:00.876Z,-2.26
2023-03-10T17:53:29.967Z,-2.24
2023-03-10T17:55:57.798Z,-2.21
2023-03-10T17:58:26.987Z,-2.23
2023-03-10T18:00:56.072Z,-2.24
2023-03-10T18:03:23.798Z,-2.29
2023-03-10T18:05:51.442Z,-2.35
2023-03-10T18:08:19.140Z,-2.40
2023-03-10T18:10:46.752Z,-2.44
2023-03-10T18:13:14.897Z,-2.57
2023-03-10T18:15:42.597Z,-2.60
2023-03-10T18:18:11.608Z,-2.67
2023-03-10T18:20:39.322Z,-2.68
2023-03-10T18:23:06.962Z,-2.69
2023-03-10T18:25:34.646Z,-2.67
2023-03-10T18:28:02.483Z,-2.63
2023-03-10T18:30:30.111Z,-2.58
2023-03-10T18:32:57.795Z,-2.53
2023-03-10T18:35:26.907Z,-2.50
2023-03-10T18:37:55.340Z,-2.50
2023-03-10T18:40:23.053Z,-2.57
2023-03-10T18:42:50.716Z,-2.55
2023-03-10T18:45:18.401Z,-2.52
2023-03-10T18:47:46.953Z,-2.49
2023-03-10T18:50:17.071Z,-2.51
2023-03-10T18:52:46.461Z,-2.55
2023-03-10T18:55:14.254Z,-2.51
2023-03-10T18:57:41.877Z,-2.50
2023-03-10T19:00:14.494Z,-2.50
2023-03-10T19:02:42.681Z,-2.47
2023-03-10T19:05:12.196Z,-2.44
2023-03-10T19:07:39.946Z,-2.46
2023-03-10T19:10:12.549Z,-2.46
2023-03-10T19:12:40.567Z,-2.47
2023-03-10T19:15:09.586Z,-2.45
2023-03-10T19:17:37.907Z,-2.42
2023-03-10T19:20:07.424Z,-2.38
2023-03-10T19:22:35.380Z,-2.36
2023-03-10T19:25:03.463Z,-2.31
2023-03-10T19:27:32.682Z,-2.32
2023-03-10T19:30:00.408Z,-2.31
2023-03-10T19:32:28.747Z,-2.30
2023-03-10T19:34:56.498Z,-2.28
2023-03-10T19:37:24.188Z,-2.28
2023-03-10T19:39:51.848Z,-2.31
2023-03-10T19:42:19.578Z,-2.34
2023-03-10T19:44:48.744Z,-2.33
2023-03-10T19:47:17.672Z,-2.35
2023-03-10T19:49:45.312Z,-2.36
2023-03-10T19:52:13.021Z,-2.33
2023-03-10T19:54:41.184Z,-2.29
2023-03-10T19:57:13.067Z,-2.33
2023-03-10T19:59:41.565Z,-2.33
2023-03-10T20:02:14.040Z,-2.33
2023-03-10T20:04:42.003Z,-2.32
2023-03-10T20:07:09.857Z,-2.34
2023-03-10T20:09:37.605Z,-2.39
2023-03-10T20:12:05.541Z,-2.40
2023-03-10T20:14:33.172Z,-2.45
2023-03-10T20:17:00.886Z,-2.51
2023-03-10T20:19:30.299Z,-2.54
2023-03-10T20:21:57.953Z,-2.57
2023-03-10T20:24:25.657Z,-2.67
2023-03-10T20:26:53.262Z,-2.69
2023-03-10T20:29:20.932Z,-2.76
2023-03-10T20:31:48.641Z,-2.90
2023-03-10T20:34:18.048Z,-2.93
2023-03-10T20:36:47.157Z,-3.06
2023-03-10T20:39:14.767Z,-3.16
2023-03-10T20:41:44.891Z,-3.16
2023-03-10T20:44:14.284Z,-3.22
2023-03-10T20:46:42.755Z,-3.36
2023-03-10T20:49:11.278Z,-3.41
2023-03-10T20:51:38.912Z,-3.44
2023-03-10T20:54:08.031Z,-3.44
2023-03-10T20:56:35.716Z,-3.53
2023-03-10T20:59:03.500Z,-3.66
2023-03-10T21:01:35.995Z,-3.73
2023-03-10T21:04:04.256Z,-3.80
2023-03-10T21:06:31.993Z,-3.93
2023-03-10T21:09:01.833Z,-3.99
2023-03-10T21:11:30.884Z,-4.09
2023-03-10T21:13:58.575Z,-4.22
2023-03-10T21:16:26.394Z,-4.41
2023-03-10T21:18:54.229Z,-4.57
2023-03-10T21:21:21.919Z,-4.66
2023-03-10T21:23:49.655Z,-4.77
2023-03-10T21:26:18.709Z,-4.83
2023-03-10T21:28:48.192Z,-4.95
2023-03-10T21:31:16.167Z,-5.02
2023-03-10T21:33:43.925Z,-5.04
2023-03-10T21:36:13.289Z,-5.19
2023-03-10T21:38:41.088Z,-5.31
2023-03-10T21:41:09.023Z,-5.38
2023-03-10T21:43:36.693Z,-5.51
2023-03-10T21:46:06.530Z,-5.59
2023-03-10T21:48:34.281Z,-5.69
2023-03-10T21:51:02.025Z,-5.81
2023-03-10T21:53:29.862Z,-5.80
2023-03-10T21:55:58.139Z,-5.80
2023-03-10T21:58:25.764Z,-5.82
2023-03-10T22:00:56.090Z,-5.85
2023-03-10T22:03:25.404Z,-5.95
2023-03-10T22:05:53.076Z,-6.00
2023-03-10T22:08:21.055Z,-5.94
2023-03-10T22:10:48.853Z,-5.91
2023-03-10T22:13:16.489Z,-5.89
2023-03-10T22:15:44.254Z,-5.97
2023-03-10T22:18:12.032Z,-6.05
2023-03-10T22:20:41.224Z,-6.08
2023-03-10T22:23:08.855Z,-6.10
2023-03-10T22:25:37.303Z,-6.21
2023-03-10T22:28:05.355Z,-6.35
2023-03-10T22:30:33.025Z,-6.41
2023-03-10T22:33:00.676Z,-6.46
2023-03-10T22:35:28.376Z,-6.53
2023-03-10T22:37:57.472Z,-6.54
2023-03-10T22:40:26.229Z,-6.62
2023-03-10T22:42:54.389Z,-6.77
2023-03-10T22:45:23.208Z,-6.79
2023-03-10T22:47:52.782Z,-6.68
2023-03-10T22:50:22.030Z,-6.60
2023-03-10T22:52:49.675Z,-6.56
2023-03-10T22:55:20.453Z,-6.53
2023-03-10T22:57:48.153Z,-6.46
2023-03-10T23:00:19.650Z,-6.45
2023-03-10T23:02:47.868Z,-6.45
2023-03-10T23:05:16.172Z,-6.39
2023-03-10T23:07:43.928Z,-6.34
2023-03-10T23:10:16.037Z,-6.29
2023-03-10T23:12:45.837Z,-6.24
2023-03-10T23:15:24.032Z,-6.21
2023-03-10T23:17:52.783Z,-6.22
2023-03-10T23:20:20.726Z,-6.18
2023-03-10T23:22:48.393Z,-6.17
2023-03-10T23:25:17.977Z,-6.11
2023-03-10T23:27:47.002Z,-6.10
2023-03-10T23:30:15.992Z,-6.08
2023-03-10T23:32:44.089Z,-6.07
2023-03-10T23:35:12.858Z,-6.03
2023-03-10T23:37:41.229Z,-6.01
2023-03-10T23:40:11.577Z,-5.99
2023-03-10T23:42:39.817Z,-6.03
2023-03-10T23:45:10.558Z,-5.97
2023-03-10T23:47:38.224Z,-5.92
2023-03-10T23:50:06.819Z,-5.87
2023-03-10T23:52:34.797Z,-5.94
2023-03-10T23:55:02.450Z,-5.97
2023-03-10T23:57:30.118Z,-5.96
2023-03-10T23:59:59.855Z,-5.89
